Time;durP1;ratioP1;P1;durP2;ratioP2;P2;SDS_P1;SDS_P2;PMS_P1;PMS_P2;Temp;Humidity;BMP_temperature;BMP_pressure;BME280_temperature;BME280_humidity;BME280_pressure;Samples;Min_cycle;Max_cycle;Signal;HPM_P1;HPM_P2
2022/06/23 00:00:57;;;;;;;1.63;0.85;;;;;;;28.45;47.94;98908.91;5013409;28;20026;-84
2022/06/23 00:03:23;;;;;;;1.52;0.90;;;;;;;28.43;47.87;98908.22;5015847;28;20037;-83
2022/06/23 00:05:56;;;;;;;1.83;0.98;;;;;;;28.43;47.61;98903.72;5017987;28;20025;-83
2022/06/23 00:08:22;;;;;;;2.38;1.00;;;;;;;28.43;47.69;98900.16;5019345;28;20029;-84
2022/06/23 00:10:53;;;;;;;2.70;1.00;;;;;;;28.40;47.84;98899.50;5014103;28;20033;-83
2022/06/23 00:13:45;;;;;;;1.90;0.95;;;;;;;28.40;47.60;98899.50;5013928;28;20083;-84
2022/06/23 00:16:26;;;;;;;3.00;1.02;;;;;;;28.40;47.56;98904.00;5012226;28;20045;-83
2022/06/23 00:18:52;;;;;;;1.42;0.85;;;;;;;28.37;47.91;98898.97;5016084;28;20088;-84
2022/06/23 00:21:29;;;;;;;2.25;1.10;;;;;;;28.36;47.89;98903.47;5015262;28;20033;-83
2022/06/23 00:24:00;;;;;;;1.55;1.00;;;;;;;28.35;47.92;98896.44;5014141;28;20033;-86
2022/06/23 00:26:29;;;;;;;1.83;0.70;;;;;;;28.35;48.09;98901.81;5015388;28;20440;-83
2022/06/23 00:29:04;;;;;;;1.83;0.80;;;;;;;28.35;47.78;98900.94;5013930;28;20040;-83
2022/06/23 00:31:37;;;;;;;1.98;0.90;;;;;;;28.33;47.90;98898.41;5013617;28;20426;-85
2022/06/23 00:34:16;;;;;;;1.58;0.80;;;;;;;28.32;48.06;98894.03;5013866;28;20033;-84
2022/06/23 00:37:00;;;;;;;1.65;0.80;;;;;;;28.31;48.05;98889.69;5014831;28;20034;-82
2022/06/23 00:40:20;;;;;;;1.42;1.13;;;;;;;28.30;48.08;98890.69;5016301;28;20025;-82
2022/06/23 00:43:00;;;;;;;1.35;0.88;;;;;;;28.30;47.86;98888.00;4977547;28;20037;-82
2022/06/23 00:45:42;;;;;;;2.75;1.00;;;;;;;28.28;47.88;98880.09;5009305;28;20060;-83
2022/06/23 00:48:31;;;;;;;2.03;1.00;;;;;;;28.28;47.99;98873.91;5013622;28;20024;-84
2022/06/23 00:51:19;;;;;;;2.33;1.10;;;;;;;28.26;47.96;98881.25;5015919;28;20053;-84
2022/06/23 00:53:56;;;;;;;1.42;0.93;;;;;;;28.24;48.07;98873.34;5015341;28;20025;-84
2022/06/23 00:56:38;;;;;;;2.15;0.90;;;;;;;28.25;48.10;98874.22;5013532;28;20349;-82
2022/06/23 00:59:23;;;;;;;1.60;1.10;;;;;;;28.25;47.85;98883.13;5013522;28;20087;-82
2022/06/23 01:02:11;;;;;;;1.50;0.95;;;;;;;28.23;47.90;98868.16;5015156;28;20100;-83
2022/06/23 01:04:51;;;;;;;2.90;0.90;;;;;;;28.24;48.16;98877.91;5013978;28;20091;-84
2022/06/23 01:07:46;;;;;;;1.90;0.95;;;;;;;28.22;47.79;98885.25;5015667;28;20498;-85
2022/06/23 01:10:53;;;;;;;0.95;0.75;;;;;;;28.20;47.80;98888.06;5016000;28;20467;-84
2022/06/23 01:13:39;;;;;;;1.70;0.93;;;;;;;28.20;47.79;98882.72;5007206;28;20030;-84
2022/06/23 01:16:13;;;;;;;1.77;1.10;;;;;;;28.20;48.17;98887.22;5019149;28;20040;-85
2022/06/23 01:19:02;;;;;;;1.92;1.05;;;;;;;28.19;47.98;98885.53;5019805;28;20459;-84
2022/06/23 01:21:42;;;;;;;1.13;0.80;;;;;;;28.17;48.22;98876.81;5013284;28;20038;-85
2022/06/23 01:24:22;;;;;;;2.05;1.00;;;;;;;28.15;48.02;98877.78;5022835;28;20041;-83
2022/06/23 01:27:00;;;;;;;1.83;1.00;;;;;;;28.15;47.92;98885.84;5021462;28;20061;-85
2022/06/23 01:29:41;;;;;;;3.50;1.00;;;;;;;28.15;48.08;98879.63;5020721;28;20141;-84
2022/06/23 01:32:21;;;;;;;2.25;1.15;;;;;;;28.13;48.14;98877.09;5023032;28;20022;-84
2022/06/23 01:34:46;;;;;;;2.10;1.15;;;;;;;28.12;48.02;98864.69;5020140;28;20029;-85
2022/06/23 01:37:38;;;;;;;2.67;1.00;;;;;;;28.12;48.04;98864.69;5020058;28;20033;-83
2022/06/23 01:40:09;;;;;;;2.10;1.20;;;;;;;28.10;48.29;98858.66;5021764;28;20192;-83
2022/06/23 01:42:45;;;;;;;2.90;1.15;;;;;;;28.09;48.19;98858.81;5017598;28;20026;-84
2022/06/23 01:45:33;;;;;;;1.80;1.05;;;;;;;28.07;47.98;98861.63;5033016;28;20050;-84
2022/06/23 01:48:17;;;;;;;2.65;1.38;;;;;;;28.07;47.93;98840.19;5016871;28;20033;-82
2022/06/23 01:50:48;;;;;;;1.27;1.00;;;;;;;28.06;48.26;98837.66;5016626;28;20029;-83
2022/06/23 01:53:23;;;;;;;1.88;1.20;;;;;;;28.05;48.02;98831.47;5018989;28;20029;-83
2022/06/23 01:55:53;;;;;;;1.75;0.98;;;;;;;28.04;48.09;98832.47;5019425;28;20095;-83
2022/06/23 01:58:21;;;;;;;1.92;1.30;;;;;;;28.03;48.20;98838.81;5016081;28;20026;-83
2022/06/23 02:00:52;;;;;;;4.72;1.85;;;;;;;28.03;48.11;98827.25;5017482;28;20056;-86
2022/06/23 02:03:25;;;;;;;1.85;1.10;;;;;;;28.02;48.10;98818.34;5017680;28;20075;-85
2022/06/23 02:05:58;;;;;;;2.33;1.45;;;;;;;28.01;48.09;98819.34;5016036;28;20030;-83
2022/06/23 02:09:00;;;;;;;1.92;1.40;;;;;;;27.99;48.06;98810.63;5016043;28;20036;-85
2022/06/23 02:11:41;;;;;;;2.70;1.38;;;;;;;27.98;48.00;98804.41;5032411;28;20029;-83
2022/06/23 02:14:11;;;;;;;2.42;1.38;;;;;;;27.97;48.46;98807.25;5018324;28;20056;-84
2022/06/23 02:17:09;;;;;;;2.05;1.30;;;;;;;27.96;48.24;98810.94;5020637;28;20030;-82
2022/06/23 02:19:35;;;;;;;2.65;1.42;;;;;;;27.94;48.03;98802.22;4995112;28;20046;-83
2022/06/23 02:22:15;;;;;;;2.58;1.25;;;;;;;27.93;48.45;98798.69;5017077;28;20087;-82
2022/06/23 02:24:57;;;;;;;3.13;1.35;;;;;;;27.92;48.35;98796.16;5019111;28;20057;-82
2022/06/23 02:27:43;;;;;;;2.70;1.23;;;;;;;27.91;48.41;98798.00;5017770;28;20022;-82
2022/06/23 02:30:43;;;;;;;2.55;1.52;;;;;;;27.88;48.18;98799.16;5015714;28;20125;-82
2022/06/23 02:33:24;;;;;;;2.03;1.25;;;;;;;27.88;48.36;98793.78;5015922;28;20021;-82
2022/06/23 02:36:15;;;;;;;3.60;1.30;;;;;;;27.87;48.17;98797.47;5015665;28;20036;-83
2022/06/23 02:38:55;;;;;;;2.35;1.17;;;;;;;27.86;48.38;98797.63;5016877;28;20025;-83
2022/06/23 02:41:33;;;;;;;3.53;1.50;;;;;;;27.85;48.55;98804.81;5015555;28;20087;-85
2022/06/23 02:43:58;;;;;;;2.47;1.40;;;;;;;27.84;48.57;98808.50;5015850;28;20092;-82
2022/06/23 02:46:32;;;;;;;2.45;1.05;;;;;;;27.84;48.25;98805.00;5015244;28;20062;-82
2022/06/23 02:49:23;;;;;;;2.67;1.20;;;;;;;27.82;48.14;98797.09;5015291;28;20092;-83
2022/06/23 02:52:15;;;;;;;2.53;1.48;;;;;;;27.81;48.35;98798.09;5015558;28;20033;-82
2022/06/23 02:54:59;;;;;;;2.08;1.17;;;;;;;27.79;48.38;98799.25;5016433;28;20444;-82
2022/06/23 02:58:06;;;;;;;2.25;1.35;;;;;;;27.78;48.38;98801.06;5017619;28;20432;-84
2022/06/23 03:00:47;;;;;;;2.00;1.33;;;;;;;27.77;48.54;98801.22;4978959;28;20530;-83
2022/06/23 03:03:35;;;;;;;2.70;1.70;;;;;;;27.76;48.72;98799.53;5010773;28;20490;-83
2022/06/23 03:06:08;;;;;;;2.72;1.50;;;;;;;27.74;48.62;98797.84;5016415;28;20072;-83
2022/06/23 03:08:58;;;;;;;3.40;1.42;;;;;;;27.74;48.59;98791.66;5016242;28;20021;-85
2022/06/23 03:11:52;;;;;;;2.55;1.50;;;;;;;27.72;48.32;98793.66;5032002;28;20025;-83
2022/06/23 03:14:50;;;;;;;1.98;1.25;;;;;;;27.70;48.67;98792.97;5031385;28;20184;-84
2022/06/23 03:17:37;;;;;;;2.85;1.80;;;;;;;27.69;48.56;98788.63;5016664;28;20044;-82
2022/06/23 03:20:03;;;;;;;3.13;1.70;;;;;;;27.67;48.54;98790.59;5018293;28;20376;-85
2022/06/23 03:22:46;;;;;;;2.00;1.48;;;;;;;27.66;48.72;98784.41;5021620;28;20034;-84
2022/06/23 03:25:27;;;;;;;2.95;1.65;;;;;;;27.65;48.60;98788.06;5016899;28;20026;-84
2022/06/23 03:28:02;;;;;;;2.55;1.20;;;;;;;27.65;48.62;98784.56;5033069;28;20480;-84
2022/06/23 03:30:49;;;;;;;3.20;1.50;;;;;;;27.62;48.85;98777.66;5018182;28;20029;-85
2022/06/23 03:33:30;;;;;;;2.55;1.58;;;;;;;27.63;48.55;98767.75;5016891;28;20048;-83
2022/06/23 03:36:02;;;;;;;2.65;1.70;;;;;;;27.61;48.49;98773.28;5014575;28;20064;-84
2022/06/23 03:41:37;;;;;;;2.42;1.48;;;;;;;27.59;48.59;98762.72;5015909;28;20064;-84
2022/06/23 03:44:16;;;;;;;3.72;1.90;;;;;;;27.60;48.73;98764.41;5014596;28;20026;-83
2022/06/23 03:46:50;;;;;;;2.60;1.67;;;;;;;27.58;48.65;98766.41;5017376;28;20107;-85
2022/06/23 03:49:38;;;;;;;3.05;1.52;;;;;;;27.57;48.78;98764.69;5019761;28;20094;-84
2022/06/23 03:52:14;;;;;;;2.83;1.70;;;;;;;27.55;48.59;98761.31;5019378;28;20030;-86
2022/06/23 03:54:52;;;;;;;1.60;1.38;;;;;;;27.56;48.60;98757.63;5022899;28;20030;-84
2022/06/23 03:57:21;;;;;;;2.63;1.80;;;;;;;27.53;48.59;98760.63;5020359;28;20038;-86
2022/06/23 04:00:09;;;;;;;3.50;1.75;;;;;;;27.54;48.89;98762.31;5016637;28;20044;-84
2022/06/23 04:02:41;;;;;;;2.88;1.65;;;;;;;27.53;48.52;98763.31;5016136;28;20033;-83
2022/06/23 04:05:06;;;;;;;3.03;1.60;;;;;;;27.52;48.59;98764.31;5015796;28;20034;-85
2022/06/23 04:07:43;;;;;;;3.30;1.65;;;;;;;27.51;48.63;98759.09;5023723;28;20478;-84
2022/06/23 04:10:24;;;;;;;2.65;1.70;;;;;;;27.50;49.06;98763.59;5031038;28;20058;-83
2022/06/23 04:12:55;;;;;;;2.97;1.55;;;;;;;27.48;48.59;98769.13;5015702;28;20034;-83
2022/06/23 04:15:33;;;;;;;2.60;1.48;;;;;;;27.50;48.55;98773.50;5014145;28;20446;-83
2022/06/23 04:18:08;;;;;;;2.83;1.50;;;;;;;27.47;48.75;98766.59;5014073;28;20088;-83
2022/06/23 04:20:47;;;;;;;3.05;1.70;;;;;;;27.47;48.70;98780.00;5030610;28;20057;-83
2022/06/23 04:23:22;;;;;;;2.50;1.52;;;;;;;27.46;48.85;98778.31;5013998;28;20033;-84
2022/06/23 04:26:05;;;;;;;3.10;1.70;;;;;;;27.47;48.68;98780.00;5016103;28;20053;-83
2022/06/23 04:28:35;;;;;;;2.83;1.75;;;;;;;27.45;48.89;98782.00;5018251;28;20280;-86
2022/06/23 04:31:06;;;;;;;3.15;1.85;;;;;;;27.42;48.68;98779.63;5017818;28;20041;-85
2022/06/23 04:33:38;;;;;;;2.60;1.70;;;;;;;27.43;48.67;98778.63;5013940;28;20025;-84
2022/06/23 04:36:04;;;;;;;3.10;1.58;;;;;;;27.41;49.02;98764.53;5015189;28;20367;-85
2022/06/23 04:38:52;;;;;;;2.88;1.90;;;;;;;27.41;48.62;98764.53;5015047;28;20037;-83
2022/06/23 04:41:48;;;;;;;3.88;1.98;;;;;;;27.41;48.66;98759.19;5013875;28;20026;-83
2022/06/23 04:44:25;;;;;;;3.08;1.70;;;;;;;27.38;49.11;98765.69;5030049;28;20040;-83
2022/06/23 04:46:55;;;;;;;2.60;1.60;;;;;;;27.38;49.00;98751.44;5015556;28;20045;-83
2022/06/23 04:49:49;;;;;;;2.72;1.65;;;;;;;27.38;49.12;98757.66;5017616;28;20033;-84
2022/06/23 04:52:22;;;;;;;2.40;1.70;;;;;;;27.38;48.76;98754.13;5017590;28;20087;-82
2022/06/23 04:55:06;;;;;;;2.78;1.90;;;;;;;27.39;49.00;98755.78;5018881;28;20025;-83
2022/06/23 04:58:11;;;;;;;2.85;1.73;;;;;;;27.37;48.71;98749.75;5017656;28;20030;-83
2022/06/23 05:00:47;;;;;;;2.85;1.88;;;;;;;27.38;48.74;98746.06;5019361;28;20025;-83
2022/06/23 05:03:19;;;;;;;;;;;;;;;27.36;49.13;98742.72;5022552;28;20033;-84
2022/06/23 05:05:59;;;;;;;3.50;2.00;;;;;;;27.37;48.74;98741.72;5018586;28;19913;-83
2022/06/23 05:08:29;;;;;;;3.60;2.15;;;;;;;27.34;48.97;98743.72;5018180;28;20494;-84
2022/06/23 05:11:01;;;;;;;3.42;1.80;;;;;;;27.34;48.82;98750.91;5018567;28;20455;-84
2022/06/23 05:13:36;;;;;;;2.63;1.60;;;;;;;27.33;48.83;98747.41;5022729;28;20140;-84
2022/06/23 05:16:23;;;;;;;3.88;1.67;;;;;;;27.33;49.20;98754.59;5017631;28;20116;-87
2022/06/23 05:18:52;;;;;;;3.20;1.77;;;;;;;27.31;48.95;98749.38;5018290;28;20153;-85
2022/06/23 05:21:30;;;;;;;3.30;1.65;;;;;;;27.30;48.89;98753.06;5017458;28;20120;-84
2022/06/23 05:24:04;;;;;;;2.92;1.75;;;;;;;27.29;49.12;98748.69;5017031;28;20092;-85
2022/06/23 05:26:38;;;;;;;3.45;1.65;;;;;;;27.30;48.87;98757.56;5017013;28;20110;-84
2022/06/23 05:29:18;;;;;;;2.75;1.63;;;;;;;27.29;48.80;98755.88;5016843;28;20064;-85
2022/06/23 05:31:48;;;;;;;2.95;1.85;;;;;;;27.30;48.83;98754.88;5017353;28;20025;-84
2022/06/23 05:34:24;;;;;;;2.80;1.90;;;;;;;27.28;48.88;98760.41;5016841;28;20057;-83
2022/06/23 05:37:15;;;;;;;2.78;1.73;;;;;;;27.28;48.76;98755.06;5018572;28;20040;-84
2022/06/23 05:39:49;;;;;;;3.45;1.70;;;;;;;27.26;48.82;98751.66;5020889;28;20038;-85
2022/06/23 05:42:26;;;;;;;2.78;1.60;;;;;;;27.26;49.02;98754.34;5033823;28;20378;-85
2022/06/23 05:44:58;;;;;;;2.90;1.83;;;;;;;27.27;49.00;98757.88;5022682;28;20415;-83
2022/06/23 05:47:30;;;;;;;3.22;1.85;;;;;;;27.25;49.09;98771.41;5059192;28;20450;-85
2022/06/23 05:50:06;;;;;;;3.25;1.98;;;;;;;27.22;48.92;98766.38;5041095;28;20576;-87
2022/06/23 05:52:40;;;;;;;;;;;;;;;27.24;49.08;98758.16;5042084;28;20025;-87
2022/06/23 05:55:21;;;;;;;3.88;2.00;;;;;;;27.23;49.03;98760.00;5043995;28;19947;-85
2022/06/23 05:57:57;;;;;;;3.65;1.95;;;;;;;27.20;48.89;98763.84;5040976;28;20052;-85
2022/06/23 06:00:30;;;;;;;2.40;1.45;;;;;;;27.24;48.91;98774.22;5041628;28;20025;-86
2022/06/23 06:03:25;;;;;;;2.63;1.58;;;;;;;27.23;48.76;98768.06;5044405;28;20031;-86
2022/06/23 06:05:56;;;;;;;3.85;1.60;;;;;;;27.21;49.06;98765.50;5020335;28;20033;-86
2022/06/23 06:11:50;;;;;;;3.30;1.67;;;;;;;27.24;48.56;98769.72;5068722;28;20116;-86
2022/06/23 06:14:20;;;;;;;2.42;1.60;;;;;;;27.22;49.01;98771.72;5079335;28;20025;-84
2022/06/23 06:16:46;;;;;;;2.95;1.80;;;;;;;27.22;48.70;98766.38;5063679;28;20063;-88
2022/06/23 06:19:19;;;;;;;2.25;1.60;;;;;;;27.22;49.07;98755.66;5056145;28;20032;-87
2022/06/23 06:21:47;;;;;;;2.65;1.60;;;;;;;27.20;48.73;98752.28;5038515;28;20482;-85
2022/06/23 06:24:36;;;;;;;3.03;1.70;;;;;;;27.21;48.76;98749.44;5041216;28;20036;-86
2022/06/23 06:27:08;;;;;;;2.85;1.55;;;;;;;27.22;48.90;98755.66;5039920;28;20086;-86
2022/06/23 06:29:35;;;;;;;2.65;1.58;;;;;;;27.20;49.04;98757.63;5040235;28;20021;-86
2022/06/23 06:32:29;;;;;;;3.83;2.10;;;;;;;27.23;49.04;98756.47;5057716;28;20462;-84
2022/06/23 06:35:16;;;;;;;3.45;1.85;;;;;;;27.22;48.72;98755.66;5039855;28;20488;-86
2022/06/23 06:37:47;;;;;;;3.20;1.90;;;;;;;27.23;49.12;98757.34;5039782;28;20028;-86
2022/06/23 06:40:13;;;;;;;2.92;1.88;;;;;;;27.22;48.67;98750.31;5041010;28;20021;-84
2022/06/23 06:43:06;;;;;;;2.10;1.55;;;;;;;27.23;48.73;98751.13;5040748;28;20021;-83
2022/06/23 06:45:34;;;;;;;2.95;1.67;;;;;;;27.21;48.82;98738.75;5038659;28;20049;-84
2022/06/23 06:48:37;;;;;;;2.88;1.80;;;;;;;27.22;48.63;98739.59;5044301;28;20025;-83
2022/06/23 06:51:10;;;;;;;2.90;1.60;;;;;;;27.22;49.07;98734.22;4960145;28;20061;-83
2022/06/23 06:53:40;;;;;;;2.42;1.55;;;;;;;27.22;48.70;98726.19;5027738;28;20036;-86
2022/06/23 06:56:17;;;;;;;4.35;1.58;;;;;;;27.22;48.71;98728.88;5038666;28;20017;-87
2022/06/23 06:58:56;;;;;;;2.72;1.50;;;;;;;27.24;48.95;98723.34;5038483;28;20028;-85
2022/06/23 07:01:25;;;;;;;3.40;1.83;;;;;;;27.25;48.72;98720.53;5038700;28;20079;-85
2022/06/23 07:03:53;;;;;;;2.78;1.55;;;;;;;27.24;48.87;98716.16;5038681;28;20409;-86
2022/06/23 07:06:30;;;;;;;2.40;1.60;;;;;;;27.24;48.65;98726.88;5039086;28;20048;-84
2022/06/23 07:09:03;;;;;;;3.17;2.00;;;;;;;27.27;48.70;98718.56;5038653;28;20082;-84
2022/06/23 07:11:39;;;;;;;3.03;1.70;;;;;;;27.27;48.80;98731.09;5038586;28;20032;-84
2022/06/23 07:14:19;;;;;;;2.53;1.70;;;;;;;27.27;48.82;98734.63;5039106;28;20036;-83
2022/06/23 07:16:55;;;;;;;3.05;1.83;;;;;;;27.27;48.45;98731.94;5056621;28;20511;-85
2022/06/23 07:19:42;;;;;;;2.42;1.58;;;;;;;27.31;48.67;98735.97;5038234;28;20071;-85
2022/06/23 07:22:11;;;;;;;3.38;1.80;;;;;;;27.31;48.50;98735.97;5038686;28;20360;-84
2022/06/23 07:24:40;;;;;;;2.22;1.60;;;;;;;27.34;48.62;98735.69;5038565;28;20021;-82
2022/06/23 07:27:20;;;;;;;2.53;1.60;;;;;;;27.34;48.46;98738.38;5038815;28;20112;-84
2022/06/23 07:30:15;;;;;;;3.00;1.85;;;;;;;27.36;48.34;98740.03;5037975;28;20016;-84
2022/06/23 07:32:46;;;;;;;2.35;1.55;;;;;;;27.36;48.40;98735.53;5031894;28;20374;-83
2022/06/23 07:35:21;;;;;;;2.17;1.48;;;;;;;27.39;48.43;98734.38;5038772;28;20048;-84
2022/06/23 07:38:09;;;;;;;3.75;1.80;;;;;;;27.37;48.50;98733.69;5039891;28;20025;-86
2022/06/23 07:40:58;;;;;;;2.72;1.80;;;;;;;27.38;48.34;98733.53;5038162;28;20132;-84
2022/06/23 07:43:26;;;;;;;2.30;1.58;;;;;;;27.39;48.60;98739.72;5037965;28;20425;-86
2022/06/23 07:45:58;;;;;;;2.58;1.42;;;;;;;27.39;48.32;98735.22;5024779;28;20049;-87
2022/06/23 07:48:26;;;;;;;2.22;1.50;;;;;;;27.42;48.23;98734.06;5015964;28;20026;-86
2022/06/23 07:50:54;;;;;;;2.72;1.65;;;;;;;27.42;48.50;98734.06;5015342;28;20041;-84
2022/06/23 07:53:24;;;;;;;2.05;1.58;;;;;;;27.43;48.33;98719.69;5017089;28;20518;-84
2022/06/23 07:55:50;;;;;;;2.67;1.52;;;;;;;27.44;48.39;98721.34;5019590;28;20060;-84
2022/06/23 07:58:26;;;;;;;2.65;1.67;;;;;;;27.45;48.20;98734.59;5017620;28;20033;-84
2022/06/23 08:01:27;;;;;;;3.92;1.73;;;;;;;27.47;48.45;98737.13;5016301;28;20375;-87
2022/06/23 08:04:20;;;;;;;2.88;1.73;;;;;;;27.47;48.10;98737.13;5019747;28;20040;-85
2022/06/23 08:06:47;;;;;;;2.65;1.88;;;;;;;27.48;48.04;98728.09;5016876;28;20030;-87
2022/06/23 08:09:24;;;;;;;2.17;1.35;;;;;;;27.48;48.57;98730.78;5016729;28;20058;-85
2022/06/23 08:17:56;;;;;;;3.38;1.50;;;;;;;27.51;48.23;98721.59;5021041;28;20049;-86
2022/06/23 08:20:24;;;;;;;2.42;1.63;;;;;;;27.52;48.32;98710.72;5028863;28;20010;-87
2022/06/23 08:22:53;;;;;;;3.25;1.80;;;;;;;27.53;48.32;98692.78;5037235;28;20037;-86
2022/06/23 08:25:19;;;;;;;3.47;2.00;;;;;;;27.53;48.42;98690.97;5021211;28;20037;-87
2022/06/23 08:27:45;;;;;;;3.38;1.90;;;;;;;27.55;48.38;98688.97;5020408;28;20018;-85
2022/06/23 08:30:15;;;;;;;2.75;1.60;;;;;;;27.57;48.27;98683.47;5021108;28;20049;-89
2022/06/23 08:32:45;;;;;;;2.83;1.63;;;;;;;27.57;48.13;98678.94;5022295;28;20021;-86
2022/06/23 08:35:19;;;;;;;2.67;1.50;;;;;;;27.60;48.14;98681.34;5018765;28;20033;-85
2022/06/23 08:37:52;;;;;;;3.53;1.95;;;;;;;27.60;48.37;98684.00;5020688;28;20061;-87
2022/06/23 08:40:39;;;;;;;3.15;1.90;;;;;;;27.64;48.36;98694.44;5020325;28;20447;-86
2022/06/23 08:43:46;;;;;;;3.05;1.77;;;;;;;27.65;48.29;98704.16;5016424;28;20030;-85
2022/06/23 08:46:49;;;;;;;4.88;2.22;;;;;;;27.66;47.93;98697.78;4983853;28;20042;-86
2022/06/23 08:49:23;;;;;;;3.72;1.90;;;;;;;27.67;48.29;98689.59;5017714;28;20041;-86
2022/06/23 08:52:14;;;;;;;1.83;1.45;;;;;;;27.70;47.91;98693.81;5018444;28;20033;-85
2022/06/23 08:54:46;;;;;;;3.65;1.50;;;;;;;27.70;48.00;98699.16;5018224;28;20034;-84
2022/06/23 08:57:26;;;;;;;3.35;1.98;;;;;;;27.70;48.02;98701.84;5017640;28;20029;-86
2022/06/23 09:00:00;;;;;;;2.78;1.70;;;;;;;27.72;48.08;98707.88;5019720;28;20091;-86
2022/06/23 09:02:48;;;;;;;3.65;1.67;;;;;;;27.73;47.96;98707.72;5021212;28;20037;-85
2022/06/23 09:05:53;;;;;;;2.50;1.60;;;;;;;27.75;48.19;98704.91;5018586;28;20022;-85
2022/06/23 09:08:30;;;;;;;2.13;1.50;;;;;;;27.75;48.19;98699.53;5004299;28;20137;-85
2022/06/23 09:11:09;;;;;;;3.20;1.88;;;;;;;27.77;48.08;98692.19;5017258;28;20025;-85
2022/06/23 09:13:50;;;;;;;2.75;1.70;;;;;;;27.78;48.15;98693.84;5016809;28;20033;-86
2022/06/23 09:16:34;;;;;;;2.42;1.50;;;;;;;27.80;48.14;98710.59;5016180;28;20034;-85
2022/06/23 09:19:12;;;;;;;3.35;1.60;;;;;;;27.81;48.10;98706.09;5016094;28;20088;-85
2022/06/23 09:22:02;;;;;;;3.47;1.95;;;;;;;27.84;48.12;98717.34;5016055;28;20057;-85
2022/06/23 09:24:52;;;;;;;2.75;1.67;;;;;;;27.84;47.87;98722.72;5018339;28;20026;-85
2022/06/23 09:27:42;;;;;;;2.72;1.58;;;;;;;27.83;48.03;98729.06;5016343;28;20029;-85
2022/06/23 09:30:35;;;;;;;2.35;1.65;;;;;;;27.84;47.76;98725.38;5015939;28;20033;-84
2022/06/23 09:33:22;;;;;;;2.85;1.88;;;;;;;27.84;48.01;98722.72;5016847;28;20029;-85
2022/06/23 09:36:14;;;;;;;4.60;1.70;;;;;;;27.85;48.10;98729.75;5021243;28;20037;-85
2022/06/23 09:39:01;;;;;;;2.40;1.58;;;;;;;27.86;47.80;98731.47;5020697;28;20068;-86
2022/06/23 09:41:45;;;;;;;3.33;1.80;;;;;;;27.87;48.06;98743.00;5020498;28;20032;-85
2022/06/23 09:44:29;;;;;;;2.70;1.42;;;;;;;27.88;48.03;98745.53;5018762;28;20064;-85
2022/06/23 09:47:22;;;;;;;2.47;1.50;;;;;;;27.88;47.93;98750.91;5038731;28;20088;-86
2022/06/23 09:50:15;;;;;;;2.83;1.73;;;;;;;27.87;47.97;98759.94;5039497;28;20036;-85
2022/06/23 09:52:52;;;;;;;3.55;2.03;;;;;;;27.87;48.28;98759.94;5041224;28;20025;-85
2022/06/23 09:55:42;;;;;;;3.25;1.83;;;;;;;27.90;48.21;98755.25;5042267;28;20029;-85
2022/06/23 09:58:33;;;;;;;3.58;1.55;;;;;;;27.90;48.13;98763.28;5039894;28;20021;-86
2022/06/23 10:01:40;;;;;;;2.45;1.38;;;;;;;27.90;48.11;98774.03;5039932;28;20025;-85
2022/06/23 10:04:25;;;;;;;3.47;1.58;;;;;;;27.91;48.15;98773.03;5038836;28;20127;-86
2022/06/23 10:06:50;;;;;;;3.15;1.70;;;;;;;27.91;48.09;98770.34;5042346;28;20021;-87
2022/06/23 10:09:44;;;;;;;3.33;1.70;;;;;;;27.92;47.89;98774.69;5041523;28;20037;-85
2022/06/23 10:12:30;;;;;;;2.53;1.80;;;;;;;27.92;48.13;98772.00;5042664;28;20057;-86
2022/06/23 10:15:20;;;;;;;3.13;1.80;;;;;;;27.94;47.96;98770.03;5026702;28;20036;-85
2022/06/23 10:18:00;;;;;;;3.97;1.75;;;;;;;27.95;48.09;98771.72;5040032;28;20359;-85
2022/06/23 10:20:26;;;;;;;3.20;1.60;;;;;;;27.95;48.09;98777.09;5041057;28;20466;-85
2022/06/23 10:23:33;;;;;;;3.60;1.60;;;;;;;27.95;47.77;98783.31;5039657;28;20017;-88
2022/06/23 10:26:20;;;;;;;3.30;1.75;;;;;;;27.97;47.73;98769.72;5059952;28;20044;-88
2022/06/23 10:29:36;;;;;;;3.33;2.08;;;;;;;27.98;48.07;98766.03;5045484;28;20025;-84
2022/06/23 10:32:20;;;;;;;4.50;1.80;;;;;;;28.01;48.05;98763.03;4982970;28;20026;-86
2022/06/23 10:35:13;;;;;;;3.47;1.88;;;;;;;28.03;47.77;98761.03;4984430;28;20029;-85
2022/06/23 10:38:15;;;;;;;3.58;2.00;;;;;;;28.06;47.65;98758.06;5027834;28;20033;-86
2022/06/23 10:41:04;;;;;;;4.05;1.90;;;;;;;28.08;47.76;98744.50;5041031;28;20025;-87
2022/06/23 10:43:45;;;;;;;2.78;1.80;;;;;;;28.10;48.00;98755.91;5040919;28;20040;-85
2022/06/23 10:46:13;;;;;;;2.78;1.60;;;;;;;28.11;47.70;98746.84;5041857;28;20050;-85
2022/06/23 10:49:19;;;;;;;3.13;1.67;;;;;;;28.12;47.84;98733.28;5043779;28;20017;-86
2022/06/23 10:52:00;;;;;;;3.50;1.95;;;;;;;28.13;47.92;98736.81;5046146;28;20048;-86
2022/06/23 10:54:45;;;;;;;3.25;1.65;;;;;;;28.17;47.52;98737.34;5044838;28;20039;-84
2022/06/23 10:57:19;;;;;;;4.13;2.30;;;;;;;28.17;47.91;98734.66;5046964;28;20022;-87
2022/06/23 11:00:19;;;;;;;4.45;2.40;;;;;;;28.19;47.57;98735.34;5041057;28;20040;-84
2022/06/23 11:03:12;;;;;;;2.90;2.03;;;;;;;28.21;47.44;98727.97;5038054;28;20612;-85
2022/06/23 11:05:46;;;;;;;2.72;1.70;;;;;;;28.22;47.91;98708.22;5037995;28;20025;-85
2022/06/23 11:08:30;;;;;;;2.97;1.50;;;;;;;28.24;47.60;98714.28;5037662;28;20051;-85
2022/06/23 11:10:56;;;;;;;3.70;1.80;;;;;;;28.24;47.67;98714.28;5037672;28;20029;-85
2022/06/23 11:13:45;;;;;;;2.85;1.88;;;;;;;28.27;47.43;98720.16;5039949;28;20040;-85
2022/06/23 11:16:34;;;;;;;3.08;1.88;;;;;;;28.28;47.43;98707.59;5037911;28;20025;-84
2022/06/23 11:19:25;;;;;;;2.70;1.70;;;;;;;28.30;47.71;98710.94;5038757;28;20029;-85
2022/06/23 11:21:54;;;;;;;3.72;2.10;;;;;;;28.31;47.34;98707.25;5038106;28;20367;-85
2022/06/23 11:24:49;;;;;;;3.30;1.90;;;;;;;28.34;47.64;98706.09;5039496;28;20130;-86
2022/06/23 11:27:47;;;;;;;2.75;1.75;;;;;;;28.34;47.69;98706.97;5039438;28;20041;-85
2022/06/23 11:30:28;;;;;;;3.10;1.95;;;;;;;28.38;47.66;98715.53;5037434;28;20025;-84
2022/06/23 11:33:11;;;;;;;3.22;1.88;;;;;;;28.38;47.57;98716.34;5036782;28;20411;-84
2022/06/23 11:35:54;;;;;;;3.03;1.90;;;;;;;28.39;47.45;98718.03;5034944;28;20044;-84
2022/06/23 11:38:19;;;;;;;2.92;1.85;;;;;;;28.40;47.30;98719.72;5034642;28;20145;-83
2022/06/23 11:40:45;;;;;;;4.45;1.90;;;;;;;28.42;47.55;98714.19;5034947;28;20470;-85
2022/06/23 11:43:14;;;;;;;2.83;1.80;;;;;;;28.44;47.38;98722.06;5034905;28;20344;-85
2022/06/23 11:45:51;;;;;;;3.70;1.73;;;;;;;28.45;47.40;98721.06;5045237;28;20091;-88
2022/06/23 11:48:38;;;;;;;3.00;1.90;;;;;;;28.46;47.45;98710.19;5039655;28;20484;-86
2022/06/23 11:51:21;;;;;;;2.47;1.75;;;;;;;28.48;47.60;98710.03;5038067;28;20033;-85
2022/06/23 11:54:14;;;;;;;2.47;1.80;;;;;;;28.50;47.23;98716.06;5056595;28;20029;-85
2022/06/23 11:57:20;;;;;;;2.83;1.80;;;;;;;28.51;47.11;98715.06;5015669;28;20044;-85
2022/06/23 12:00:14;;;;;;;3.60;2.35;;;;;;;28.51;47.27;98718.59;5024134;28;20040;-85
2022/06/23 12:02:58;;;;;;;3.55;1.70;;;;;;;28.53;47.35;98716.56;5042354;28;20120;-85
2022/06/23 12:05:33;;;;;;;3.42;1.88;;;;;;;28.56;47.08;98712.72;5039335;28;20024;-87
2022/06/23 12:08:12;;;;;;;2.75;1.80;;;;;;;28.56;47.22;98710.06;5039960;28;20017;-84
2022/06/23 12:10:38;;;;;;;4.20;1.80;;;;;;;28.59;46.80;98716.94;5038520;28;20021;-85
2022/06/23 12:13:05;;;;;;;2.47;1.70;;;;;;;28.59;47.01;98714.25;5038690;28;20055;-86
2022/06/23 12:15:41;;;;;;;3.13;1.77;;;;;;;28.61;47.01;98718.47;5038256;28;20035;-84
2022/06/23 12:18:44;;;;;;;2.60;1.55;;;;;;;28.63;47.08;98712.94;5037974;28;20036;-84
2022/06/23 12:21:31;;;;;;;2.13;1.55;;;;;;;28.64;46.89;98717.28;4997917;28;20029;-84
2022/06/23 12:24:07;;;;;;;2.92;1.70;;;;;;;28.65;47.24;98725.19;5038462;28;20039;-84
2022/06/23 12:26:42;;;;;;;2.60;1.73;;;;;;;28.67;47.01;98720.50;5039880;28;20035;-87
2022/06/23 12:30:06;;;;;;;2.97;1.70;;;;;;;28.68;46.89;98724.84;5061456;28;20044;-84
2022/06/23 12:32:55;;;;;;;2.25;1.50;;;;;;;28.71;47.16;98730.91;5016022;28;20054;-86
2022/06/23 12:35:29;;;;;;;4.15;2.30;;;;;;;28.71;46.93;98733.59;5017037;28;20113;-84
2022/06/23 12:38:03;;;;;;;2.40;1.65;;;;;;;28.71;46.91;98734.44;5025793;28;20053;-84
2022/06/23 12:40:52;;;;;;;2.78;1.75;;;;;;;28.73;46.76;98743.19;5040619;28;20029;-85
2022/06/23 12:43:22;;;;;;;3.08;1.83;;;;;;;28.75;46.83;98745.69;5030866;28;20037;-86
2022/06/23 12:45:57;;;;;;;2.42;1.38;;;;;;;28.75;47.14;98746.53;5042449;28;20486;-86
2022/06/23 12:48:47;;;;;;;2.53;1.52;;;;;;;28.78;46.94;98761.47;5058633;28;20092;-84